createdAt,value
2022-11-02T00:00:03.661Z,19.23
2022-11-02T00:02:30.052Z,19.19
2022-11-02T00:04:56.411Z,19.17
2022-11-02T00:07:22.716Z,19.14
2022-11-02T00:09:49.010Z,19.11
2022-11-02T00:12:15.342Z,19.08
2022-11-02T00:14:41.667Z,18.94
2022-11-02T00:17:08.009Z,19.03
2022-11-02T00:19:34.321Z,19.01
2022-11-02T00:22:00.598Z,18.98
2022-11-02T00:24:27.057Z,18.94
2022-11-02T00:26:53.387Z,18.92
2022-11-02T00:29:20.331Z,18.89
2022-11-02T00:31:46.680Z,18.85
2022-11-02T00:34:12.994Z,18.82
2022-11-02T00:36:39.337Z,18.79
2022-11-02T00:39:05.656Z,18.75
2022-11-02T00:41:32.075Z,18.73
2022-11-02T00:43:58.474Z,18.71
2022-11-02T00:46:24.812Z,18.69
2022-11-02T00:48:51.148Z,18.66
2022-11-02T00:51:17.459Z,18.62
2022-11-02T00:53:43.782Z,18.59
2022-11-02T00:56:10.230Z,18.56
2022-11-02T00:58:36.505Z,18.54
2022-11-02T01:01:02.856Z,18.51
2022-11-02T01:03:29.165Z,18.48
2022-11-02T01:05:55.586Z,18.46
2022-11-02T01:08:21.842Z,18.43
2022-11-02T01:10:48.529Z,18.25
2022-11-02T01:13:14.939Z,18.38
2022-11-02T01:15:41.346Z,18.34
2022-11-02T01:18:08.861Z,18.33
2022-11-02T01:20:35.281Z,18.29
2022-11-02T01:23:01.589Z,18.27
2022-11-02T01:25:29.146Z,18.26
2022-11-02T01:27:55.414Z,18.23
2022-11-02T01:30:21.679Z,18.20
2022-11-02T01:32:48.154Z,18.18
2022-11-02T01:35:14.571Z,18.17
2022-11-02T01:37:42.140Z,18.15
2022-11-02T01:40:08.552Z,18.13
2022-11-02T01:42:34.820Z,18.12
2022-11-02T01:45:01.176Z,18.11
2022-11-02T01:47:27.468Z,18.08
2022-11-02T01:49:53.740Z,18.07
2022-11-02T01:52:20.095Z,18.05
2022-11-02T01:54:46.363Z,18.04
2022-11-02T01:57:12.740Z,18.02
2022-11-02T01:59:39.056Z,18.01
2022-11-02T02:02:05.430Z,17.99
2022-11-02T02:04:34.639Z,17.97
2022-11-02T02:07:00.949Z,17.96
2022-11-02T02:09:27.180Z,17.93
2022-11-02T02:11:53.482Z,17.93
2022-11-02T02:14:19.736Z,17.91
2022-11-02T02:16:46.320Z,17.89
2022-11-02T02:19:12.599Z,17.87
2022-11-02T02:21:38.932Z,17.85
2022-11-02T02:24:05.208Z,17.85
2022-11-02T02:26:31.565Z,17.83
2022-11-02T02:28:57.883Z,17.82
2022-11-02T02:31:25.012Z,17.81
2022-11-02T02:33:51.329Z,17.81
2022-11-02T02:36:17.620Z,17.79
2022-11-02T02:38:43.881Z,17.77
2022-11-02T02:41:11.002Z,17.77
2022-11-02T02:43:38.737Z,17.75
2022-11-02T02:46:06.300Z,17.73
2022-11-02T02:48:32.734Z,17.72
2022-11-02T02:50:59.066Z,17.72
2022-11-02T02:53:25.349Z,17.70
2022-11-02T02:55:51.701Z,17.69
2022-11-02T02:58:18.067Z,17.70
2022-11-02T03:00:44.325Z,17.68
2022-11-02T03:03:10.645Z,17.68
2022-11-02T03:05:36.972Z,17.66
2022-11-02T03:08:03.574Z,17.65
2022-11-02T03:10:31.681Z,17.64
2022-11-02T03:12:58.573Z,17.63
2022-11-02T03:15:24.869Z,17.61
2022-11-02T03:17:51.521Z,17.58
2022-11-02T03:20:17.845Z,17.58
2022-11-02T03:22:44.133Z,17.54
2022-11-02T03:25:10.580Z,17.53
2022-11-02T03:27:37.020Z,17.51
2022-11-02T03:30:03.369Z,17.50
2022-11-02T03:32:29.686Z,17.49
2022-11-02T03:34:56.012Z,17.48
2022-11-02T03:37:22.348Z,17.47
2022-11-02T03:39:48.641Z,17.46
2022-11-02T03:42:14.944Z,17.47
2022-11-02T03:44:41.346Z,17.47
2022-11-02T03:47:07.648Z,17.45
2022-11-02T03:49:33.925Z,17.43
2022-11-02T03:52:00.194Z,17.43
2022-11-02T03:54:26.467Z,17.42
2022-11-02T03:56:53.170Z,17.42
2022-11-02T03:59:19.709Z,17.41
2022-11-02T04:01:46.716Z,17.40
2022-11-02T04:04:13.057Z,17.39
2022-11-02T04:06:39.313Z,17.39
2022-11-02T04:09:05.575Z,17.38
2022-11-02T04:11:31.924Z,17.37
2022-11-02T04:13:58.230Z,17.36
2022-11-02T04:16:27.600Z,17.35
2022-11-02T04:18:54.606Z,17.34
2022-11-02T04:21:21.082Z,17.33
2022-11-02T04:23:47.405Z,17.33
2022-11-02T04:26:13.674Z,17.31
2022-11-02T04:28:40.012Z,17.31
2022-11-02T04:31:06.309Z,17.31
2022-11-02T04:33:33.371Z,17.30
2022-11-02T04:35:59.629Z,17.28
2022-11-02T04:38:27.936Z,17.27
2022-11-02T04:40:54.312Z,17.27
2022-11-02T04:43:20.698Z,17.26
2022-11-02T04:45:47.133Z,17.24
2022-11-02T04:48:13.386Z,17.23
2022-11-02T04:50:39.644Z,17.22
2022-11-02T04:53:07.288Z,17.20
2022-11-02T04:55:33.613Z,17.19
2022-11-02T04:57:59.935Z,17.18
2022-11-02T05:00:26.254Z,17.17
2022-11-02T05:02:52.646Z,17.17
2022-11-02T05:05:19.041Z,17.15
2022-11-02T05:07:46.148Z,17.14
2022-11-02T05:10:12.463Z,17.13
2022-11-02T05:12:38.789Z,17.13
2022-11-02T05:15:05.069Z,17.10
2022-11-02T05:17:31.449Z,17.09
2022-11-02T05:19:57.742Z,17.09
2022-11-02T05:22:24.000Z,17.08
2022-11-02T05:24:50.406Z,17.07
2022-11-02T05:27:16.783Z,17.05
2022-11-02T05:29:43.219Z,17.03
2022-11-02T05:32:09.559Z,17.02
2022-11-02T05:34:35.984Z,17.01
2022-11-02T05:37:03.366Z,16.99
2022-11-02T05:39:29.715Z,16.98
2022-11-02T05:41:56.018Z,16.98
2022-11-02T05:44:22.358Z,16.98
2022-11-02T05:46:48.674Z,16.96
2022-11-02T05:49:15.138Z,16.79
2022-11-02T05:51:41.473Z,16.92
2022-11-02T05:54:07.820Z,16.89
2022-11-02T05:56:34.108Z,16.88
2022-11-02T05:59:01.935Z,16.88
2022-11-02T06:01:28.319Z,16.86
2022-11-02T06:03:54.738Z,16.85
2022-11-02T06:06:21.165Z,16.85
2022-11-02T06:08:47.421Z,16.84
2022-11-02T06:11:13.707Z,16.84
2022-11-02T06:13:40.022Z,16.83
2022-11-02T06:16:07.017Z,16.81
2022-11-02T06:18:33.589Z,16.82
2022-11-02T06:21:00.577Z,16.81
2022-11-02T06:23:27.031Z,16.79
2022-11-02T06:25:53.419Z,16.79
2022-11-02T06:28:20.254Z,16.78
2022-11-02T06:30:46.550Z,16.78
2022-11-02T06:33:13.420Z,16.78
2022-11-02T06:35:40.116Z,16.77
2022-11-02T06:38:06.380Z,16.81
2022-11-02T06:40:33.317Z,16.84
2022-11-02T06:43:17.065Z,16.94
2022-11-02T06:45:44.209Z,17.14
2022-11-02T06:48:10.591Z,17.32
2022-11-02T06:50:36.974Z,17.49
2022-11-02T06:53:04.005Z,17.67
2022-11-02T06:55:30.932Z,17.82
2022-11-02T06:57:57.268Z,17.93
2022-11-02T07:00:24.132Z,17.98
2022-11-02T07:02:50.671Z,18.06
2022-11-02T07:05:17.975Z,18.14
2022-11-02T07:07:45.294Z,18.21
2022-11-02T07:10:11.584Z,18.29
2022-11-02T07:12:37.918Z,18.39
2022-11-02T07:15:05.587Z,18.38
2022-11-02T07:17:32.383Z,18.64
2022-11-02T07:19:58.873Z,18.75
2022-11-02T07:22:25.260Z,18.89
2022-11-02T07:24:51.564Z,19.02
2022-11-02T07:27:17.911Z,19.13
2022-11-02T07:29:44.211Z,19.17
2022-11-02T07:32:10.497Z,19.17
2022-11-02T07:34:36.906Z,19.32
2022-11-02T07:37:03.208Z,19.50
2022-11-02T07:39:29.622Z,19.53
2022-11-02T07:41:55.935Z,19.63
2022-11-02T07:44:22.265Z,19.61
2022-11-02T07:46:48.528Z,19.62
2022-11-02T07:49:20.193Z,19.67
2022-11-02T07:51:47.718Z,19.63
2022-11-02T07:54:14.648Z,19.59
2022-11-02T07:56:41.057Z,19.58
2022-11-02T07:59:07.425Z,19.62
2022-11-02T08:01:33.730Z,19.63
2022-11-02T08:04:00.200Z,19.62
2022-11-02T08:06:42.447Z,19.61
2022-11-02T08:09:11.293Z,19.60
2022-11-02T08:11:37.613Z,19.61
2022-11-02T08:14:03.908Z,19.62
2022-11-02T08:16:30.231Z,19.62
2022-11-02T08:18:59.390Z,19.73
2022-11-02T08:27:46.563Z,19.90
2022-11-02T08:33:18.411Z,19.98
2022-11-02T08:38:42.899Z,20.10
2022-11-02T08:41:09.146Z,20.12
2022-11-02T08:43:35.487Z,20.15
2022-11-02T08:46:14.829Z,20.19
2022-11-02T08:48:42.259Z,20.22
2022-11-02T08:51:08.595Z,20.25
2022-11-02T08:53:37.606Z,20.28
2022-11-02T08:56:05.397Z,20.29
2022-11-02T08:58:33.679Z,20.30
2022-11-02T09:01:00.797Z,20.32
2022-11-02T09:03:28.936Z,20.33
2022-11-02T09:05:55.610Z,20.38
2022-11-02T09:08:22.063Z,20.36
2022-11-02T09:10:50.478Z,20.41
2022-11-02T09:13:17.396Z,20.42
2022-11-02T09:15:44.137Z,20.39
2022-11-02T09:18:11.017Z,20.39
2022-11-02T09:20:37.637Z,20.37
2022-11-02T09:23:04.286Z,20.40
2022-11-02T09:25:30.831Z,20.44
2022-11-02T09:27:58.001Z,20.42
2022-11-02T09:30:24.403Z,20.46
2022-11-02T09:32:50.736Z,20.45
2022-11-02T09:35:17.119Z,20.44
2022-11-02T09:37:49.922Z,20.41
2022-11-02T09:40:17.651Z,20.40
2022-11-02T09:42:44.285Z,20.38
2022-11-02T09:45:10.766Z,20.36
2022-11-02T15:03:23.513Z,20.74
2022-11-02T15:05:50.296Z,20.71
2022-11-02T15:08:16.589Z,20.72
2022-11-02T15:10:42.914Z,20.71
2022-11-02T15:13:11.994Z,20.71
2022-11-02T15:15:42.195Z,20.68
2022-11-02T15:18:08.893Z,20.66
2022-11-02T15:20:35.174Z,20.65
2022-11-02T15:23:01.499Z,20.64
2022-11-02T15:25:27.840Z,20.63
2022-11-02T15:27:54.168Z,20.62
2022-11-02T15:30:25.292Z,20.61
2022-11-02T15:32:58.900Z,20.60
2022-11-02T15:35:27.684Z,20.60
2022-11-02T15:38:15.970Z,20.59
2022-11-02T15:40:40.629Z,20.57
2022-11-02T15:43:07.391Z,20.56
2022-11-02T15:45:47.806Z,20.55
2022-11-02T15:48:16.695Z,20.55
2022-11-02T15:50:43.177Z,20.53
2022-11-02T15:53:22.971Z,20.51
2022-11-02T15:55:50.129Z,20.50
2022-11-02T15:58:16.406Z,20.49
2022-11-02T16:00:43.998Z,20.47
2022-11-02T16:03:10.481Z,20.44
2022-11-02T16:05:36.771Z,20.41
2022-11-02T16:08:10.874Z,20.38
2022-11-02T16:10:37.808Z,20.36
2022-11-02T16:13:04.107Z,20.36
2022-11-02T16:15:30.601Z,20.37
2022-11-02T16:17:57.725Z,20.44
2022-11-02T16:20:24.026Z,20.54
2022-11-02T16:22:50.350Z,20.67
2022-11-02T16:25:17.119Z,20.80
2022-11-02T16:27:43.499Z,20.95
2022-11-02T16:30:09.851Z,21.09
2022-11-02T16:32:36.131Z,21.24
2022-11-02T16:35:02.412Z,21.35
2022-11-02T16:37:28.773Z,21.45
2022-11-02T16:39:55.047Z,21.56
2022-11-02T16:42:21.297Z,21.67
2022-11-02T16:44:47.832Z,21.78
2022-11-02T16:47:14.807Z,21.87
2022-11-02T16:49:41.066Z,21.95
2022-11-02T16:52:07.691Z,22.03
2022-11-02T16:54:33.992Z,22.10
2022-11-02T16:57:00.927Z,22.17
2022-11-02T16:59:27.189Z,22.24
2022-11-02T17:01:53.569Z,22.30
2022-11-02T17:04:19.953Z,22.34
2022-11-02T17:06:46.254Z,22.42
2022-11-02T17:09:12.551Z,22.47
2022-11-02T17:11:38.921Z,22.51
2022-11-02T17:14:05.204Z,22.56
2022-11-02T17:16:31.506Z,22.61
2022-11-02T17:18:57.872Z,22.66
2022-11-02T17:21:24.289Z,22.70
2022-11-02T17:23:51.217Z,22.74
2022-11-02T17:26:17.592Z,22.79
2022-11-02T17:28:43.827Z,22.80
2022-11-02T17:31:10.152Z,22.82
2022-11-02T17:33:36.446Z,22.82
2022-11-02T17:36:02.708Z,22.76
2022-11-02T17:38:29.137Z,22.67
2022-11-02T17:40:55.488Z,22.59
2022-11-02T17:43:22.285Z,22.51
2022-11-02T17:45:48.599Z,22.45
2022-11-02T17:48:14.870Z,22.40
2022-11-02T17:50:41.147Z,22.34
2022-11-02T17:53:07.746Z,22.27
2022-11-02T17:55:34.044Z,22.22
2022-11-02T17:58:00.948Z,22.17
2022-11-02T18:00:27.292Z,22.11
2022-11-02T18:02:53.648Z,22.05
2022-11-02T18:05:19.976Z,22.02
2022-11-02T18:07:46.488Z,21.97
2022-11-02T18:10:12.967Z,21.92
2022-11-02T18:12:39.492Z,21.88
2022-11-02T18:15:05.941Z,21.84
2022-11-02T18:17:34.964Z,21.79
2022-11-02T18:20:02.372Z,21.75
2022-11-02T18:22:32.400Z,21.71
2022-11-02T18:24:59.138Z,21.63
2022-11-02T18:27:28.668Z,21.57
2022-11-02T18:29:55.219Z,21.53
2022-11-02T18:32:21.503Z,21.47
2022-11-02T18:34:48.411Z,21.43
2022-11-02T18:37:14.733Z,21.39
2022-11-02T18:39:41.049Z,21.36
2022-11-02T18:42:07.653Z,21.35
2022-11-02T18:44:33.905Z,21.33
2022-11-02T18:47:00.840Z,21.30
2022-11-02T18:49:27.151Z,21.25
2022-11-02T18:51:53.493Z,21.22
2022-11-02T18:54:19.965Z,21.18
2022-11-02T18:56:46.318Z,21.16
2022-11-02T18:59:13.297Z,21.14
2022-11-02T19:01:40.222Z,21.10
2022-11-02T19:04:14.461Z,21.07
2022-11-02T19:06:43.408Z,21.02
2022-11-02T19:09:09.732Z,20.98
2022-11-02T19:11:36.009Z,20.95
2022-11-02T19:14:02.367Z,20.92
2022-11-02T19:16:28.689Z,20.89
2022-11-02T19:18:54.984Z,20.88
2022-11-02T19:21:21.311Z,20.85
2022-11-02T19:23:47.945Z,20.83
2022-11-02T19:26:14.300Z,20.80
2022-11-02T19:28:41.168Z,20.78
2022-11-02T19:31:07.524Z,20.76
2022-11-02T19:33:33.918Z,20.74
2022-11-02T19:36:01.488Z,20.72
2022-11-02T19:38:27.775Z,20.70
2022-11-02T19:40:54.637Z,20.68
2022-11-02T19:43:20.998Z,20.67
2022-11-02T19:45:47.280Z,20.67
2022-11-02T19:48:13.582Z,20.66
2022-11-02T19:50:41.048Z,20.66
2022-11-02T19:53:07.348Z,20.65
2022-11-02T19:55:33.675Z,20.64
2022-11-02T19:57:59.964Z,20.64
2022-11-02T20:00:26.405Z,20.66
2022-11-02T20:02:53.386Z,20.68
2022-11-02T20:05:19.763Z,20.71
2022-11-02T20:07:46.723Z,20.76
2022-11-02T20:10:13.272Z,20.83
2022-11-02T20:12:39.657Z,20.89
2022-11-02T20:15:05.926Z,20.95
2022-11-02T20:17:46.572Z,21.00
2022-11-02T20:20:19.593Z,21.08
2022-11-02T20:22:45.914Z,21.13
2022-11-02T20:25:12.427Z,21.18
2022-11-02T20:27:38.761Z,21.22
2022-11-02T20:30:05.112Z,21.27
2022-11-02T20:32:31.479Z,21.33
2022-11-02T20:34:57.733Z,21.37
2022-11-02T20:37:24.028Z,21.41
2022-11-02T20:39:51.369Z,21.47
2022-11-02T20:42:17.677Z,21.50
2022-11-02T20:44:44.005Z,21.54
2022-11-02T20:47:10.424Z,21.56
2022-11-02T20:49:49.935Z,21.59
2022-11-02T20:52:17.397Z,21.60
2022-11-02T20:54:43.875Z,21.61
2022-11-02T20:57:10.159Z,21.59
2022-11-02T20:59:36.928Z,21.60
2022-11-02T21:02:03.307Z,21.60
2022-11-02T21:04:29.918Z,21.60
2022-11-02T21:06:56.813Z,21.58
2022-11-02T21:09:23.129Z,21.59
2022-11-02T21:11:49.429Z,21.56
2022-11-02T21:14:15.753Z,21.56
2022-11-02T21:16:42.137Z,21.56
2022-11-02T21:19:08.418Z,21.57
2022-11-02T21:21:35.025Z,21.62
2022-11-02T21:24:01.329Z,21.68
2022-11-02T21:26:27.728Z,21.73
2022-11-02T21:28:54.214Z,21.77
2022-11-02T21:31:20.560Z,21.79
2022-11-02T21:33:46.846Z,21.80
2022-11-02T21:36:13.786Z,21.80
2022-11-02T21:38:40.113Z,21.82
2022-11-02T21:41:07.491Z,21.80
2022-11-02T21:43:33.764Z,21.79
2022-11-02T21:46:02.820Z,21.77
2022-11-02T21:50:56.596Z,21.73
2022-11-02T21:53:23.226Z,21.70
2022-11-02T21:55:49.802Z,21.66
2022-11-02T21:58:16.335Z,21.61
2022-11-02T22:00:42.669Z,21.54
2022-11-02T22:03:09.382Z,21.47
2022-11-02T22:05:36.697Z,21.39
2022-11-02T22:08:02.978Z,21.31
2022-11-02T22:10:32.150Z,21.22
2022-11-02T22:12:58.455Z,21.15
2022-11-02T22:15:24.783Z,21.06
2022-11-02T22:17:52.333Z,20.97
2022-11-02T22:20:18.751Z,20.90
2022-11-02T22:22:45.375Z,20.84
2022-11-02T22:25:11.652Z,20.75
2022-11-02T22:27:38.202Z,20.68
2022-11-02T22:30:04.836Z,20.61
2022-11-02T22:32:31.190Z,20.53
2022-11-02T22:34:57.439Z,20.46
2022-11-02T22:37:23.698Z,20.40
2022-11-02T22:39:50.058Z,20.33
2022-11-02T22:42:16.443Z,20.27
2022-11-02T22:44:43.289Z,20.21
2022-11-02T22:47:09.749Z,20.13
2022-11-02T22:49:36.070Z,20.07
2022-11-02T22:52:02.655Z,20.02
2022-11-02T22:54:28.974Z,19.96
2022-11-02T22:56:55.262Z,19.91
2022-11-02T22:59:21.594Z,19.87
2022-11-02T23:01:48.029Z,19.80
2022-11-02T23:04:14.447Z,19.75
2022-11-02T23:06:40.702Z,19.71
2022-11-02T23:09:07.349Z,19.64
2022-11-02T23:11:33.640Z,19.59
2022-11-02T23:14:00.146Z,19.54
2022-11-02T23:16:26.443Z,19.50
2022-11-02T23:18:52.729Z,19.43
2022-11-02T23:21:19.261Z,19.39
2022-11-02T23:23:45.527Z,19.34
2022-11-02T23:26:12.907Z,19.29
2022-11-02T23:28:39.302Z,19.25
2022-11-02T23:31:05.668Z,19.19
2022-11-02T23:33:31.995Z,19.16
2022-11-02T23:35:58.271Z,19.12
2022-11-02T23:38:24.655Z,19.07
2022-11-02T23:40:51.003Z,19.04
2022-11-02T23:43:17.272Z,19.00
2022-11-02T23:45:43.602Z,18.96
2022-11-02T23:48:10.006Z,18.91
2022-11-02T23:50:36.542Z,18.89
2022-11-02T23:53:02.909Z,18.83
2022-11-02T23:55:29.329Z,18.79
2022-11-02T23:57:55.969Z,18.76
